x

Portland 12 Nm Southeast Of Portland,me (44007) Wave Buoy

5:50 - Mon 29th May 2017 All times are EDT. -4 hours from GMT.

  • Sig Wave height 2.6ft
  • Swell Direction
  • Peak Period 5s
  • Average Period 4s
  • Wind
    13mph, 16mph gusts
  • Sea Temp 49°f
  • Luft Temp 47°f
  • Sea Pressure 1017.8mb
  • Portland 12 Nm Southeast Of Portland,me
  • Portland 12 Nm Southeast Of Portland,me

More Historic Weather Station data

Upgrade to MSW Pro to gain access to the past 30 days of data for over 8000 Wavebouys and Weather Stations around the globe.

Join Pro

Comparision Forecast

View Surf forecast
   
Mo 05/29 5:50 2.5ft 5s 4s 13 16 mph 1017.8mb 49f 47f
4:50 2.5ft 4s 4s 11 13 mph 1016.7mb 49f 48f
3:50 2.5ft 6s 5s 11 13 mph 1016.4mb 49f 49f
2:50 2.5ft 7s 5s 11 13 mph 1016.3mb 49f 48f
1:50 2.5ft 7s 5s 9 9 mph 1016.5mb 50f 48f
12:50 2.5ft 7s 5s 7 9 mph 1016.5mb 50f 48f
So 05/28 11:50 2.5ft 8s 5s 7 7 mph 1016.5mb 50f 48f
10:50 2.5ft 8s 5s 4 7 mph 1016.8mb 50f 48f
9:50 2.5ft 8s 5s 4 4 mph 1016.9mb 50f 48f
8:50 2.5ft 8s 5s 2 2 mph 1017.1mb 50f 48f
7:50 2.5ft 8s 5s 2 4 mph 1016.7mb 50f 49f
6:50 2.5ft 8s 5s 7 9 mph 1016.6mb 50f 49f
5:50 2.5ft 9s 5s 7 7 mph 1016.5mb 50f 48f
4:50 2.5ft 9s 5s 7 9 mph 1016.3mb 48f 48f
3:50 2.5ft 9s 5s 9 9 mph 1016.3mb 47f 48f
2:50 2.5ft 9s 5s 9 11 mph 1016.3mb 47f 48f
1:50 2.5ft 8s 5s 9 11 mph 1016.3mb 47f 48f
12:50 2.5ft 8s 6s 9 11 mph 1015.6mb 47f 48f
11:50 2.5ft 7s 6s 9 11 mph 1015.5mb 47f 48f
10:50 2.5ft 8s 7s 9 11 mph 1015.4mb 48f 48f
9:50 2.5ft 8s 6s 9 11 mph 1015.5mb 49f 48f
8:50 2ft 8s 6s 7 9 mph 1016.1mb 48f 48f
7:50 2ft 8s 6s 4 7 mph 1015.7mb 48f 49f
6:50 2ft 8s 6s 7 9 mph 1014.7mb 48f 48f
5:50 2ft 9s 6s 9 9 mph 1013.9mb 49f 48f
4:50 2.5ft 9s 6s 4 7 mph 1013.7mb 49f 47f
3:50 2.5ft 9s 6s 2 4 mph 1014.1mb 49f 48f
2:50 2.5ft 10s 6s 7 9 mph 1013.2mb 50f 48f
1:50 2.5ft 7s 6s 4 7 mph 1013.6mb 50f 48f
12:50 3ft 8s 6s 4 4 mph 1013.8mb 49f 48f
Sa 05/27 11:50 2.5ft 8s 6s 2 4 mph 1014.3mb 49f 48f
10:50 2.5ft 7s 6s 2 4 mph 1014.1mb 48f 48f
9:50 3ft 8s 7s 4 7 mph 1013.9mb 48f 48f
8:50 2.5ft 8s 7s 7 7 mph 1013.4mb 48f 48f
7:50 2.5ft 8s 6s 7 9 mph 1013mb 49f 49f
6:50 3ft 8s 7s 9 9 mph 1012.6mb 49f 49f
5:50 2.5ft 9s 6s 11 13 mph 1012.3mb 49f 49f
4:50 2.5ft 10s 7s 11 11 mph 1012.2mb 49f 49f
3:50 2.5ft 10s 7s 9 9 mph 1011.8mb 48f 49f
2:50 2.5ft 11s 7s 9 9 mph 1011.1mb 48f 49f
1:50 2.5ft 8s 7s 9 9 mph 1010.8mb 48f 49f
12:50 3ft 7s 7s 7 9 mph 1010.8mb 48f 50f
11:50 3ft 8s 7s  -  2 mph 1011mb 48f 53f
10:50 3ft 8s 7s 4 7 mph 1010.5mb 47f 50f
9:50 3.5ft 8s 7s 4 4 mph 1010.4mb 47f 49f
8:50 3ft 8s 7s 4 7 mph 1010.3mb 48f 50f
7:50 3.5ft 9s 7s 9 11 mph 1010mb 47f 51f
6:50 3ft 8s 7s 9 11 mph 1009.5mb 47f 51f
5:50 3.5ft 9s 7s 7 11 mph 1008.3mb 47f 49f
4:50 3.5ft 10s 7s 7 7 mph 1007.8mb 47f 50f
3:50 3.5ft 10s 7s 11 13 mph 1007.5mb 47f 50f
2:50 4ft 8s 7s 9 9 mph 1007.3mb 47f 49f
1:50 4ft 7s 7s 11 13 mph 1007mb 48f 50f
12:50 4ft 7s 7s 9 11 mph 1006.3mb 48f 51f
Fr 05/26 11:50 4.5ft 8s 7s 9 9 mph 1006.1mb 48f 51f
10:50 4.5ft 8s 7s 11 11 mph 1005.5mb 48f 51f
9:50 5ft 8s 7s 11 13 mph 1005.1mb 48f 51f
8:50 5ft 8s 6s 11 11 mph 1004.4mb 49f 51f
7:50 5.5ft 8s 7s 11 13 mph 1003.8mb 48f 51f
6:50 5.5ft 8s 7s 13 18 mph 1002.8mb 48f 51f
5:50 5.5ft 9s 7s 13 16 mph 1001.9mb 48f 51f
4:50 5.5ft 8s 6s 9 9 mph 1001.1mb 47f 50f
3:50 6ft 8s 6s 11 13 mph 1000.2mb 48f 50f
2:50 6ft 9s 6s 7 9 mph 999.6mb 48f 49f
1:50 7.5ft 9s 6s 9 11 mph 999.2mb 47f 48f
12:50 7ft 8s 6s 13 16 mph 998.8mb 46f 47f
11:50 7ft 8s 6s 20 25 mph 998.3mb 46f 47f
10:50 7.5ft 8s 6s 16 18 mph 998.4mb 46f 47f
9:50 8.5ft 8s 6s 20 25 mph 998.2mb 46f 47f
8:50 8.5ft 8s 6s 22 27 mph 999mb 47f 47f
7:50 9ft 8s 6s 22 31 mph 999.1mb 47f 48f
6:50 8.5ft 8s 6s 29 34 mph 999.2mb 48f 48f
5:50 9ft 8s 6s 31 38 mph 999.4mb 47f 47f
4:50 10ft 8s 6s 25 31 mph 1001.6mb 48f 47f
3:50 9ft 8s 6s 16 20 mph 1003.5mb 48f 46f
2:50 9ft 8s 6s 29 34 mph 1001mb 48f 47f
1:50 10ft 8s 6s 27 31 mph 1002.6mb 49f 47f
12:50 9ft 8s 6s 20 25 mph 1004.9mb 49f 47f
Do 05/25 11:50 10ft 8s 6s 18 22 mph 1005.9mb 49f 48f
10:50 9ft 8s 6s 13 20 mph 1007.2mb 49f 48f
9:50 8.5ft 8s 6s 29 36 mph 1006.3mb 50f 49f
8:50 7.5ft 6s 5s 27 34 mph 1007.2mb 51f 49f
7:50 7.5ft 6s 5s 31 38 mph 1007.3mb 51f 49f
6:50 6.5ft 5s 5s 31 38 mph 1007.7mb 52f 50f
5:50 5.5ft 5s 5s 29 36 mph 1009mb 52f 50f
4:50 5ft 5s 4s 27 34 mph 1009.8mb 52f 50f
3:50 4ft 4s 4s 22 27 mph 1010.7mb 52f 51f
2:50 4ft 9s 4s 22 29 mph 1011.1mb 51f 51f
1:50 3.5ft 9s 4s 22 27 mph 1011.6mb 51f 50f
12:50 3.5ft 9s 4s 22 27 mph 1011.8mb 52f 51f
11:50 3.5ft 9s 5s 20 22 mph 1012.1mb 53f 51f